Time;durP1;ratioP1;P1;durP2;ratioP2;P2;SDS_P1;SDS_P2;PMS_P1;PMS_P2;Temp;Humidity;BMP_temperature;BMP_pressure;BME280_temperature;BME280_humidity;BME280_pressure;Samples;Min_cycle;Max_cycle;Signal;HPM_P1;HPM_P2
2021/03/27 00:01:09;;;;;;;6.40;5.77;;;;;;;8.47;89.46;100822.28;5054400;28;20462;-68
2021/03/27 00:03:38;;;;;;;5.63;3.90;;;;;;;8.51;89.91;100812.53;5054464;28;20450;-68
2021/03/27 00:06:08;;;;;;;5.93;4.60;;;;;;;8.52;89.97;100814.94;5054217;28;20504;-69
2021/03/27 00:08:46;;;;;;;11.10;4.70;;;;;;;8.57;89.74;100814.09;5054243;28;20449;-68
2021/03/27 00:11:16;;;;;;;7.40;3.20;;;;;;;8.58;89.71;100808.41;5054318;28;20438;-68
2021/03/27 00:13:57;;;;;;;8.90;4.70;;;;;;;8.56;89.97;100809.78;5054257;28;20787;-67
2021/03/27 00:16:28;;;;;;;6.57;4.87;;;;;;;8.52;90.04;100812.25;5053951;28;20492;-68
2021/03/27 00:19:03;;;;;;;7.57;5.17;;;;;;;8.52;90.28;100811.44;5054274;28;20846;-69
2021/03/27 00:21:34;;;;;;;3.17;2.83;;;;;;;8.49;90.06;100799.31;5054009;28;20465;-69
2021/03/27 00:24:06;;;;;;;6.93;6.23;;;;;;;8.57;89.76;100797.91;5053666;28;20783;-68
2021/03/27 00:26:35;;;;;;;10.97;6.17;;;;;;;8.63;89.62;100796.75;5053901;28;20543;-69
2021/03/27 00:29:09;;;;;;;12.23;3.77;;;;;;;8.68;89.22;100795.94;5053944;28;20496;-68
2021/03/27 00:31:40;;;;;;;17.73;5.97;;;;;;;8.67;88.66;100783.50;5053604;28;20466;-68
2021/03/27 00:34:09;;;;;;;12.53;5.47;;;;;;;8.62;87.74;100783.56;5053946;28;20462;-68
2021/03/27 00:36:38;;;;;;;9.17;4.97;;;;;;;8.57;87.17;100784.41;5053701;28;20462;-67
2021/03/27 00:39:10;;;;;;;10.83;5.17;;;;;;;8.55;87.64;100773.91;5053834;28;20488;-68
2021/03/27 00:41:39;;;;;;;6.40;2.50;;;;;;;8.51;87.09;100775.53;5053661;28;20466;-68
2021/03/27 00:44:11;;;;;;;5.83;4.10;;;;;;;8.48;87.23;100772.59;5053646;28;20492;-68
2021/03/27 00:46:39;;;;;;;5.60;4.07;;;;;;;8.48;86.77;100768.00;5053272;28;21004;-68
2021/03/27 00:49:10;;;;;;;4.97;3.40;;;;;;;8.49;86.76;100774.19;5053292;28;20458;-67
2021/03/27 00:51:39;;;;;;;8.10;5.87;;;;;;;8.42;87.20;100765.63;5053731;28;20419;-69
2021/03/27 00:54:10;;;;;;;10.00;3.80;;;;;;;8.40;87.07;100757.00;5053660;28;20442;-69
2021/03/27 00:56:44;;;;;;;7.37;3.50;;;;;;;8.42;87.76;100763.75;5053537;28;20454;-68
2021/03/27 00:59:17;;;;;;;18.80;7.30;;;;;;;8.45;88.55;100760.47;5053568;28;20441;-68
2021/03/27 01:01:45;;;;;;;6.93;3.90;;;;;;;8.48;88.62;100756.41;5053260;28;20473;-68
2021/03/27 01:04:16;;;;;;;10.00;5.03;;;;;;;8.52;88.58;100755.56;5052851;28;20434;-68
2021/03/27 01:06:47;;;;;;;8.83;3.60;;;;;;;8.58;88.68;100742.81;5053441;28;20466;-68
2021/03/27 01:09:16;;;;;;;9.33;5.47;;;;;;;8.63;88.55;100742.75;5053149;28;20838;-69
2021/03/27 01:11:46;;;;;;;6.43;2.93;;;;;;;8.68;88.52;100745.44;5053453;28;20446;-68
2021/03/27 01:14:22;;;;;;;17.77;5.93;;;;;;;8.63;88.67;100731.97;5053056;28;20805;-68
2021/03/27 01:16:51;;;;;;;9.43;6.83;;;;;;;8.64;88.65;100732.78;5052787;28;21010;-68
2021/03/27 01:19:20;;;;;;;18.63;5.50;;;;;;;8.67;88.56;100724.09;5053287;28;20604;-68
2021/03/27 01:21:48;;;;;;;11.00;5.87;;;;;;;8.66;88.57;100715.19;5053139;28;20493;-67
2021/03/27 01:24:16;;;;;;;21.93;5.50;;;;;;;8.69;88.33;100717.34;5053278;28;20445;-67
2021/03/27 01:26:48;;;;;;;15.50;4.87;;;;;;;8.73;87.71;100712.19;5052791;28;20450;-69
2021/03/27 01:29:34;;;;;;;6.37;4.63;;;;;;;8.69;86.56;100711.13;5053165;28;20419;-68
2021/03/27 01:32:11;;;;;;;7.73;3.50;;;;;;;8.61;85.81;100712.56;5053026;28;20423;-69
2021/03/27 01:34:43;;;;;;;9.80;3.37;;;;;;;8.55;85.52;100695.59;5053154;28;20422;-68
2021/03/27 01:37:16;;;;;;;17.17;5.17;;;;;;;8.53;85.74;100694.25;5052989;28;20469;-68
2021/03/27 01:39:50;;;;;;;2.93;2.30;;;;;;;8.46;85.74;100686.50;5053135;28;20789;-68
2021/03/27 01:42:23;;;;;;;10.77;3.80;;;;;;;8.45;85.91;100689.47;5053025;28;20497;-68
2021/03/27 01:45:08;;;;;;;21.27;6.83;;;;;;;8.42;85.60;100690.06;5053109;28;20434;-68
2021/03/27 01:47:41;;;;;;;3.67;3.47;;;;;;;8.39;86.34;100686.03;5053050;28;20523;-68
2021/03/27 01:50:18;;;;;;;5.40;4.33;;;;;;;8.34;86.76;100684.16;5053064;28;20438;-68
2021/03/27 01:52:54;;;;;;;4.70;2.40;;;;;;;8.36;87.27;100678.47;5052955;28;20430;-68
2021/03/27 01:55:48;;;;;;;8.67;3.87;;;;;;;8.33;87.76;100670.94;5052993;28;20429;-69
2021/03/27 01:58:20;;;;;;;11.37;4.53;;;;;;;8.27;88.39;100664.78;5051288;28;20472;-68
2021/03/27 02:00:52;;;;;;;4.87;3.33;;;;;;;8.27;88.19;100667.47;5053001;28;20470;-69
2021/03/27 02:03:24;;;;;;;8.20;4.60;;;;;;;8.28;88.41;100671.00;5052779;28;20433;-68
2021/03/27 02:05:55;;;;;;;7.47;3.53;;;;;;;8.29;88.55;100668.00;5052855;28;20463;-68
2021/03/27 02:08:33;;;;;;;18.80;5.27;;;;;;;8.30;88.60;100661.50;5052879;28;20429;-68
2021/03/27 02:11:05;;;;;;;3.83;3.50;;;;;;;8.28;88.75;100668.31;5052706;28;20414;-70
2021/03/27 02:13:40;;;;;;;7.53;6.00;;;;;;;8.28;89.29;100663.69;5053132;28;20430;-68
2021/03/27 02:16:16;;;;;;;2.43;1.43;;;;;;;8.31;88.72;100663.13;5056058;28;20472;-68
2021/03/27 02:19:00;;;;;;;5.93;3.03;;;;;;;8.30;88.29;100661.50;5056185;28;20425;-68
2021/03/27 02:21:41;;;;;;;8.83;5.00;;;;;;;8.31;88.17;100662.31;5056090;28;21032;-68
2021/03/27 02:24:24;;;;;;;21.43;5.60;;;;;;;8.31;87.24;100663.13;5056388;28;20437;-69
2021/03/27 02:26:58;;;;;;;11.00;7.47;;;;;;;8.30;86.89;100650.72;5056244;28;20474;-68
2021/03/27 02:30:05;;;;;;;8.33;4.40;;;;;;;8.33;86.09;100660.16;5056270;28;20434;-68
2021/03/27 02:32:44;;;;;;;9.70;4.07;;;;;;;8.32;85.75;100653.94;5056369;28;20429;-69
2021/03/27 02:35:17;;;;;;;8.33;2.83;;;;;;;8.34;85.17;100659.06;5056114;28;20434;-70
2021/03/27 02:37:56;;;;;;;4.57;2.70;;;;;;;8.36;86.01;100646.06;5056033;28;20458;-68
2021/03/27 02:40:26;;;;;;;5.37;3.03;;;;;;;8.38;85.70;100645.84;5056068;28;20429;-68
2021/03/27 02:42:58;;;;;;;10.83;2.43;;;;;;;8.43;86.22;100643.88;5056093;28;20415;-68
2021/03/27 02:45:29;;;;;;;7.60;4.30;;;;;;;8.51;87.09;100645.16;5055955;28;20480;-68
2021/03/27 02:48:06;;;;;;;8.07;3.90;;;;;;;8.62;87.27;100649.34;5055941;28;20797;-68
2021/03/27 02:50:48;;;;;;;16.73;4.33;;;;;;;8.74;86.88;100649.78;5055895;28;20430;-68
2021/03/27 02:53:17;;;;;;;10.70;6.97;;;;;;;8.80;86.65;100653.22;5055605;28;20434;-68
2021/03/27 02:55:56;;;;;;;6.70;4.63;;;;;;;8.85;86.55;100647.75;5055666;28;20458;-68
2021/03/27 02:58:28;;;;;;;8.43;5.30;;;;;;;8.92;86.33;100644.72;5055449;28;20898;-68
2021/03/27 03:01:02;;;;;;;4.23;2.77;;;;;;;9.02;85.79;100652.69;5055255;28;20976;-69
2021/03/27 03:03:38;;;;;;;12.37;3.33;;;;;;;9.06;85.30;100637.50;5055605;28;20445;-67
2021/03/27 03:06:17;;;;;;;8.70;5.10;;;;;;;9.11;85.68;100640.16;5055573;28;20454;-69
2021/03/27 03:08:50;;;;;;;4.57;2.83;;;;;;;9.16;85.31;100634.66;5055634;28;20477;-68
2021/03/27 03:11:31;;;;;;;3.60;3.27;;;;;;;9.17;84.76;100627.38;5055169;28;20984;-68
2021/03/27 03:14:07;;;;;;;11.07;5.03;;;;;;;9.19;84.70;100634.09;5055419;28;20419;-69
2021/03/27 03:16:41;;;;;;;5.27;4.43;;;;;;;9.23;83.84;100637.03;5055043;28;20477;-68
2021/03/27 03:19:14;;;;;;;1.70;1.60;;;;;;;9.27;83.48;100635.34;5055200;28;20439;-70
2021/03/27 03:21:45;;;;;;;8.23;4.40;;;;;;;9.27;83.32;100633.47;5055187;28;20470;-68
2021/03/27 03:24:19;;;;;;;4.43;3.03;;;;;;;9.28;82.40;100634.25;5054895;28;20905;-69
2021/03/27 03:27:07;;;;;;;11.90;4.00;;;;;;;9.29;82.36;100630.44;5053676;28;20478;-68
2021/03/27 03:29:47;;;;;;;8.53;2.90;;;;;;;9.29;82.38;100623.16;5054944;28;20473;-69
2021/03/27 03:32:25;;;;;;;9.47;4.40;;;;;;;9.27;82.19;100624.53;5055160;28;20418;-68
2021/03/27 03:35:02;;;;;;;8.87;4.83;;;;;;;9.23;81.76;100623.53;5055093;28;20484;-68
2021/03/27 03:37:47;;;;;;;3.90;2.33;;;;;;;9.22;82.52;100621.91;5054795;28;20485;-68
2021/03/27 03:40:20;;;;;;;6.50;2.43;;;;;;;9.22;82.48;100609.19;5054785;28;20437;-68
2021/03/27 03:43:08;;;;;;;5.47;3.20;;;;;;;9.16;82.86;100606.84;5054647;28;20920;-68
2021/03/27 03:45:47;;;;;;;5.07;3.60;;;;;;;9.15;82.96;100608.75;5054792;28;20426;-69
2021/03/27 03:48:31;;;;;;;3.73;2.87;;;;;;;9.18;82.81;100615.47;5054479;28;20473;-68
2021/03/27 03:51:01;;;;;;;10.60;3.67;;;;;;;9.17;82.97;100603.88;5054710;28;20425;-69
2021/03/27 03:53:38;;;;;;;9.40;2.90;;;;;;;9.14;82.79;100598.25;5054913;28;20442;-69
2021/03/27 03:56:16;;;;;;;3.70;2.83;;;;;;;9.12;83.30;100584.19;5054512;28;20469;-69
2021/03/27 03:59:21;;;;;;;16.80;3.60;;;;;;;9.13;82.69;100592.03;5054373;28;20796;-68
2021/03/27 04:01:54;;;;;;;9.27;3.10;;;;;;;9.09;82.81;100597.22;5041456;28;20581;-68
2021/03/27 04:04:24;;;;;;;13.63;3.93;;;;;;;9.10;82.80;100611.53;5054388;28;20423;-69
2021/03/27 04:06:55;;;;;;;5.97;2.70;;;;;;;9.06;82.12;100608.59;5054121;28;21002;-68
2021/03/27 04:09:26;;;;;;;11.37;3.93;;;;;;;9.08;82.20;100613.72;5054467;28;20441;-68
2021/03/27 04:12:01;;;;;;;5.73;4.57;;;;;;;9.04;82.72;100610.78;5054298;28;20419;-68
2021/03/27 04:15:02;;;;;;;9.37;4.73;;;;;;;9.06;82.40;100618.59;5054345;28;20464;-69
2021/03/27 04:17:39;;;;;;;7.30;4.93;;;;;;;9.01;82.62;100615.97;5046603;28;20485;-68
2021/03/27 04:20:10;;;;;;;11.50;4.20;;;;;;;8.91;82.99;100622.31;5054151;28;20803;-69
2021/03/27 04:22:43;;;;;;;3.70;3.40;;;;;;;8.94;82.39;100619.03;5054143;28;20520;-69
2021/03/27 04:25:21;;;;;;;7.43;4.10;;;;;;;8.96;81.95;100624.13;5054078;28;20418;-69
2021/03/27 04:27:53;;;;;;;4.43;3.40;;;;;;;8.89;81.51;100618.28;5053726;28;21021;-68
2021/03/27 04:30:29;;;;;;;3.60;3.03;;;;;;;8.70;82.16;100616.31;5054030;28;20438;-67
2021/03/27 04:33:02;;;;;;;5.87;3.20;;;;;;;8.62;83.73;100616.94;5054002;28;20437;-69
2021/03/27 04:35:48;;;;;;;5.73;3.10;;;;;;;8.64;84.09;100611.28;5053830;28;20915;-68
2021/03/27 04:38:21;;;;;;;7.73;4.67;;;;;;;8.61;84.36;100607.25;5053767;28;20433;-67
2021/03/27 04:40:52;;;;;;;3.30;1.73;;;;;;;8.53;85.10;100611.38;5053368;28;20489;-68
2021/03/27 04:43:25;;;;;;;5.77;3.63;;;;;;;8.46;85.40;100610.94;5053754;28;20457;-68
2021/03/27 04:45:55;;;;;;;4.90;2.17;;;;;;;8.47;84.89;100607.13;5053774;28;20870;-68
2021/03/27 04:48:29;;;;;;;3.57;3.27;;;;;;;8.45;85.10;100603.09;5053661;28;20480;-67
2021/03/27 04:51:22;;;;;;;6.23;4.00;;;;;;;8.37;85.46;100601.03;5053578;28;20418;-69
2021/03/27 04:53:53;;;;;;;2.10;1.47;;;;;;;8.29;85.25;100600.53;5053585;28;20450;-68
2021/03/27 04:56:25;;;;;;;5.37;2.90;;;;;;;8.25;85.85;100596.81;5053554;28;20485;-68
2021/03/27 04:58:58;;;;;;;6.90;3.53;;;;;;;8.19;86.40;100600.66;5053257;28;21042;-67
2021/03/27 05:01:44;;;;;;;5.67;3.50;;;;;;;8.09;86.29;100600.72;5053490;28;20502;-67
2021/03/27 05:04:16;;;;;;;5.03;3.43;;;;;;;8.06;86.27;100590.53;5053436;28;20431;-68
2021/03/27 05:06:51;;;;;;;7.30;4.43;;;;;;;7.99;85.69;100584.63;5053455;28;20496;-66
2021/03/27 05:09:38;;;;;;;12.63;4.43;;;;;;;7.93;85.18;100597.38;5053472;28;20437;-66
2021/03/27 05:12:12;;;;;;;3.03;2.13;;;;;;;7.85;84.90;100595.28;5053368;28;20457;-65
2021/03/27 05:15:02;;;;;;;2.87;1.90;;;;;;;7.77;85.17;100588.59;5053253;28;20423;-67
2021/03/27 05:18:17;;;;;;;2.63;2.00;;;;;;;7.76;85.54;100596.97;5086117;22;20495;-72
2021/03/27 05:20:43;;;;;;;2.20;1.33;;;;;;;7.77;86.18;100588.59;5011104;28;20480;-73
2021/03/27 05:23:17;;;;;;;4.53;2.67;;;;;;;7.79;86.34;100586.44;5075102;28;20444;-73
2021/03/27 05:26:01;;;;;;;5.67;4.67;;;;;;;7.80;85.91;100588.03;5093656;28;20421;-73
2021/03/27 05:28:48;;;;;;;8.53;3.30;;;;;;;7.87;86.41;100586.91;5093803;28;20464;-73
2021/03/27 05:31:27;;;;;;;4.33;3.13;;;;;;;7.96;86.88;100585.19;5093295;28;20421;-71
2021/03/27 05:34:06;;;;;;;4.53;2.60;;;;;;;8.02;87.69;100582.19;5093466;28;20443;-72
2021/03/27 05:36:44;;;;;;;3.23;2.20;;;;;;;8.14;87.76;100578.28;5093491;28;20417;-72
2021/03/27 05:39:25;;;;;;;4.07;2.93;;;;;;;8.27;87.82;100585.72;5093451;28;20475;-71
2021/03/27 05:42:08;;;;;;;6.23;2.53;;;;;;;8.33;87.65;100588.09;5093342;28;20460;-72
2021/03/27 05:45:15;;;;;;;9.97;4.60;;;;;;;8.49;87.28;100588.75;5093390;28;20421;-73
2021/03/27 05:48:14;;;;;;;11.07;3.13;;;;;;;8.61;86.71;100591.06;5093335;28;20483;-71
2021/03/27 05:51:04;;;;;;;4.83;2.53;;;;;;;8.66;86.54;100582.88;5097211;28;20424;-72
2021/03/27 05:53:59;;;;;;;5.20;3.03;;;;;;;8.74;86.49;100579.56;5096974;28;20910;-72
2021/03/27 05:56:56;;;;;;;4.10;2.33;;;;;;;8.79;86.18;100567.88;5097256;28;20490;-72
2021/03/27 05:59:53;;;;;;;4.03;2.73;;;;;;;8.84;85.47;100554.31;5097449;28;20448;-73
2021/03/27 06:02:39;;;;;;;2.73;2.30;;;;;;;8.86;84.74;100552.16;5087679;28;20488;-72
2021/03/27 06:05:26;;;;;;;4.63;3.50;;;;;;;8.93;83.34;100563.38;5097893;28;20432;-72
2021/03/27 06:08:20;;;;;;;9.33;2.50;;;;;;;8.91;82.68;100554.78;5097065;28;20463;-71
2021/03/27 06:10:59;;;;;;;3.27;2.20;;;;;;;8.94;82.82;100553.38;5101461;28;20435;-71
2021/03/27 06:13:47;;;;;;;3.67;3.20;;;;;;;8.91;82.77;100557.47;5105141;28;20432;-69
2021/03/27 06:16:40;;;;;;;2.93;2.60;;;;;;;8.90;82.58;100566.69;5096526;28;20424;-71
2021/03/27 06:19:51;;;;;;;2.73;1.73;;;;;;;8.95;82.96;100555.00;5096690;28;20825;-71
2021/03/27 06:22:27;;;;;;;3.27;3.00;;;;;;;9.02;82.70;100560.84;5096598;28;20480;-72
2021/03/27 06:25:21;;;;;;;5.17;2.27;;;;;;;9.06;83.02;100562.66;5097298;28;20452;-71
2021/03/27 06:28:15;;;;;;;2.73;1.57;;;;;;;9.18;82.99;100543.31;5096894;28;20491;-71
2021/03/27 06:31:12;;;;;;;3.80;2.30;;;;;;;9.32;82.58;100544.19;5096641;28;20443;-71
2021/03/27 06:34:06;;;;;;;1.57;1.40;;;;;;;9.60;80.85;100544.28;5088366;28;20455;-71
2021/03/27 06:36:55;;;;;;;4.17;3.13;;;;;;;9.98;80.16;100555.03;5096451;28;20447;-71
2021/03/27 06:40:02;;;;;;;6.47;1.93;;;;;;;10.28;78.39;100561.81;5096615;28;20431;-73
2021/03/27 06:42:46;;;;;;;3.00;2.60;;;;;;;10.43;77.70;100563.44;5095848;28;20575;-72
2021/03/27 06:45:34;;;;;;;4.13;2.57;;;;;;;10.49;76.92;100554.09;5096302;28;20440;-73
2021/03/27 06:48:35;;;;;;;3.13;2.93;;;;;;;10.57;76.63;100558.81;5096165;28;20461;-73
2021/03/27 06:51:27;;;;;;;2.37;2.13;;;;;;;10.67;75.82;100553.22;5096220;28;20420;-72
2021/03/27 06:54:16;;;;;;;1.50;1.40;;;;;;;10.76;75.08;100554.09;5096357;28;20486;-71
2021/03/27 06:56:54;;;;;;;6.87;2.43;;;;;;;10.81;74.84;100558.59;5095880;28;20935;-71
2021/03/27 06:59:56;;;;;;;6.90;1.60;;;;;;;10.92;74.69;100564.59;5095908;28;20468;-70
2021/03/27 07:02:53;;;;;;;4.10;2.80;;;;;;;10.98;74.22;100571.50;5059997;28;20570;-71
2021/03/27 07:06:07;;;;;;;4.73;1.63;;;;;;;11.08;74.67;100577.53;5095522;28;20444;-72
2021/03/27 07:09:20;;;;;;;3.40;1.80;;;;;;;11.12;75.68;100580.44;5096125;28;20509;-71
2021/03/27 07:12:01;;;;;;;1.87;1.77;;;;;;;11.01;75.87;100579.03;5038384;28;20443;-73
2021/03/27 07:15:15;;;;;;;1.93;1.17;;;;;;;10.91;77.19;100592.81;5095227;28;20448;-73
2021/03/27 07:17:56;;;;;;;1.17;1.07;;;;;;;10.81;78.34;100608.19;5095624;28;21027;-70
2021/03/27 07:20:40;;;;;;;6.70;3.43;;;;;;;10.74;78.80;100626.72;5095858;28;20797;-73
2021/03/27 07:23:31;;;;;;;1.60;1.37;;;;;;;10.70;80.43;100636.56;5095664;28;20958;-73
2021/03/27 07:26:23;;;;;;;1.97;1.40;;;;;;;10.52;84.44;100648.28;5095695;28;20421;-72
2021/03/27 07:29:02;;;;;;;2.00;1.80;;;;;;;10.23;88.33;100640.41;5095393;28;20487;-71
2021/03/27 07:31:37;;;;;;;5.53;2.27;;;;;;;9.89;92.90;100646.09;5095462;28;20517;-71
2021/03/27 07:34:38;;;;;;;0.93;0.80;;;;;;;9.56;94.73;100648.72;5095411;28;20803;-70
2021/03/27 07:37:42;;;;;;;2.70;1.40;;;;;;;9.45;96.79;100647.28;5094943;28;20963;-70
2021/03/27 07:40:33;;;;;;;3.37;2.33;;;;;;;9.37;98.57;100656.84;5094789;28;20922;-68
2021/03/27 07:43:31;;;;;;;2.60;1.80;;;;;;;9.30;100.00;100673.44;5095008;28;20457;-73
2021/03/27 07:46:15;;;;;;;4.40;3.00;;;;;;;9.25;100.00;100678.91;5094684;28;20898;-70
2021/03/27 07:48:55;;;;;;;5.00;2.30;;;;;;;9.26;100.00;100699.41;5095028;28;20460;-70
2021/03/27 07:51:40;;;;;;;2.87;2.30;;;;;;;9.19;100.00;100706.25;5095113;28;20420;-71
2021/03/27 07:54:36;;;;;;;1.77;1.57;;;;;;;9.14;100.00;100733.34;5093115;28;20452;-72
2021/03/27 07:57:26;;;;;;;1.80;1.53;;;;;;;9.06;100.00;100753.69;5094858;28;20428;-72
2021/03/27 08:00:20;;;;;;;1.00;1.00;;;;;;;8.94;99.95;100766.78;5095073;28;20788;-71
2021/03/27 08:03:19;;;;;;;1.33;1.23;;;;;;;8.61;99.42;100793.56;5093767;28;20484;-71
2021/03/27 08:06:30;;;;;;;2.20;1.07;;;;;;;8.28;99.29;100803.22;5095004;28;20462;-71
2021/03/27 08:09:17;;;;;;;0.97;0.67;;;;;;;7.92;99.41;100810.69;5052050;28;20474;-72
2021/03/27 08:12:17;;;;;;;0.40;0.30;;;;;;;7.76;100.00;100818.88;5051678;28;20453;-70
2021/03/27 08:15:27;;;;;;;0.40;0.30;;;;;;;7.67;100.00;100836.69;5089403;28;20444;-70
2021/03/27 08:18:06;;;;;;;0.40;0.30;;;;;;;7.60;100.00;100825.41;5080741;28;20484;-71
2021/03/27 08:20:59;;;;;;;0.40;0.30;;;;;;;7.49;100.00;100840.81;5094481;28;20454;-70
2021/03/27 08:23:52;;;;;;;0.40;0.33;;;;;;;7.32;100.00;100827.63;5094402;28;20455;-71
2021/03/27 08:26:52;;;;;;;0.40;0.30;;;;;;;7.24;100.00;100865.91;5094497;28;20432;-70
2021/03/27 08:29:48;;;;;;;0.40;0.27;;;;;;;7.09;100.00;100884.78;5094243;28;20985;-72
2021/03/27 08:32:37;;;;;;;0.40;0.20;;;;;;;6.92;100.00;100903.09;5091702;28;20441;-75
2021/03/27 08:35:37;;;;;;;0.60;0.30;;;;;;;6.82;100.00;100917.38;5093849;28;20914;-69
2021/03/27 08:38:42;;;;;;;0.40;0.30;;;;;;;6.77;100.00;100920.84;5093707;28;20468;-70
2021/03/27 08:41:20;;;;;;;0.40;0.30;;;;;;;6.81;100.00;100932.69;5051381;28;20912;-71
2021/03/27 08:44:27;;;;;;;0.40;0.27;;;;;;;6.78;100.00;100938.63;5051200;28;20836;-70
2021/03/27 08:47:04;;;;;;;0.97;0.97;;;;;;;6.73;100.00;100952.06;5087006;28;20448;-69
2021/03/27 08:50:17;;;;;;;0.60;0.60;;;;;;;6.66;100.00;100943.44;5093796;28;20491;-70
2021/03/27 08:53:31;;;;;;;0.40;0.30;;;;;;;6.74;100.00;100953.69;5093965;28;20421;-70
2021/03/27 08:56:42;;;;;;;0.40;0.30;;;;;;;6.71;100.00;100954.22;5093783;28;20421;-71
2021/03/27 08:59:45;;;;;;;0.40;0.30;;;;;;;6.69;100.00;100956.38;5093702;28;20461;-70
2021/03/27 09:02:42;;;;;;;3.87;1.07;;;;;;;6.65;100.00;100987.59;5093645;28;20460;-71
2021/03/27 09:05:27;;;;;;;0.40;0.30;;;;;;;6.64;100.00;100988.66;5093501;28;20409;-72
2021/03/27 09:08:18;;;;;;;0.50;0.50;;;;;;;6.61;100.00;100983.81;5093554;28;20970;-73
2021/03/27 09:11:06;;;;;;;0.50;0.43;;;;;;;6.68;100.00;101000.50;5093654;28;20425;-73
2021/03/27 09:13:49;;;;;;;0.40;0.30;;;;;;;6.72;100.00;101001.59;5093601;28;20427;-73
2021/03/27 09:16:53;;;;;;;0.50;0.37;;;;;;;6.83;100.00;101011.31;5093583;28;20796;-73
2021/03/27 09:19:35;;;;;;;0.40;0.30;;;;;;;6.83;100.00;101005.94;5094055;28;20471;-73
2021/03/27 09:22:34;;;;;;;0.80;0.80;;;;;;;6.91;100.00;100995.72;5095015;28;20464;-74
2021/03/27 09:25:13;;;;;;;0.40;0.30;;;;;;;6.97;100.00;101008.13;5093230;28;20428;-73
2021/03/27 09:28:04;;;;;;;0.40;0.30;;;;;;;7.06;100.00;101010.03;5093696;28;20471;-73
2021/03/27 09:30:43;;;;;;;0.50;0.40;;;;;;;7.10;100.00;101037.25;5094870;28;20424;-73
2021/03/27 09:33:17;;;;;;;0.40;0.20;;;;;;;7.08;100.00;101029.44;5098055;28;20925;-74
2021/03/27 09:35:57;;;;;;;0.80;0.80;;;;;;;7.17;100.00;101018.09;5094122;28;20435;-73
2021/03/27 09:38:28;;;;;;;0.40;0.30;;;;;;;7.27;100.00;101026.22;5093794;28;20460;-72
2021/03/27 09:41:36;;;;;;;0.40;0.30;;;;;;;7.45;100.00;101032.97;5107098;28;20436;-74
2021/03/27 09:44:22;;;;;;;0.70;0.43;;;;;;;7.61;100.00;101039.16;5093630;28;20436;-74
2021/03/27 09:47:00;;;;;;;0.40;0.30;;;;;;;7.58;100.00;101037.81;5093510;28;20448;-73
2021/03/27 09:49:33;;;;;;;0.40;0.30;;;;;;;7.78;100.00;101045.09;5093131;28;20421;-73
2021/03/27 09:52:17;;;;;;;0.73;0.40;;;;;;;7.84;99.70;101061.00;5093581;28;20425;-74
2021/03/27 09:54:48;;;;;;;0.60;0.43;;;;;;;7.91;99.89;101057.22;5093548;28;20424;-74
2021/03/27 09:57:26;;;;;;;0.40;0.30;;;;;;;8.04;100.00;101064.75;5093224;28;20437;-74
2021/03/27 10:00:14;;;;;;;0.40;0.30;;;;;;;8.05;97.36;101075.25;5093040;28;20512;-72
2021/03/27 10:02:52;;;;;;;0.40;0.30;;;;;;;7.99;96.52;101084.44;5093119;28;20480;-73
2021/03/27 10:05:32;;;;;;;0.40;0.30;;;;;;;7.91;97.33;101073.41;5093219;28;20471;-73
2021/03/27 10:08:10;;;;;;;0.60;0.50;;;;;;;7.94;98.38;101079.06;5093184;28;20444;-74
2021/03/27 10:10:46;;;;;;;0.50;0.47;;;;;;;8.08;98.89;101077.44;5093296;28;20799;-73
2021/03/27 10:13:42;;;;;;;0.53;0.50;;;;;;;8.48;98.56;101078.44;5093102;28;20420;-74
2021/03/27 10:16:12;;;;;;;0.83;0.37;;;;;;;8.62;94.98;101077.88;5092726;28;20933;-73
2021/03/27 10:18:43;;;;;;;0.43;0.33;;;;;;;8.74;94.52;101081.88;5092715;28;20529;-73
2021/03/27 10:21:22;;;;;;;1.47;0.60;;;;;;;8.79;92.89;101087.25;5092987;28;20490;-74
2021/03/27 10:23:54;;;;;;;2.10;0.40;;;;;;;8.55;91.23;101078.19;5093403;28;20429;-75
2021/03/27 10:26:30;;;;;;;0.57;0.33;;;;;;;8.44;92.36;101082.78;5093111;28;20428;-75
2021/03/27 10:29:08;;;;;;;0.83;0.40;;;;;;;8.52;94.05;101092.22;5093369;28;20495;-74
2021/03/27 10:31:41;;;;;;;0.40;0.30;;;;;;;8.77;96.51;101094.84;5093027;28;20416;-75
2021/03/27 10:34:24;;;;;;;0.50;0.40;;;;;;;8.87;94.45;101099.38;5093014;28;20417;-75
2021/03/27 10:37:02;;;;;;;1.47;0.73;;;;;;;8.67;93.00;101116.47;5096585;28;20425;-74
2021/03/27 10:39:55;;;;;;;0.70;0.40;;;;;;;8.14;95.61;101142.97;5096559;28;20438;-76
2021/03/27 10:42:47;;;;;;;0.43;0.40;;;;;;;7.55;95.92;101156.97;5096549;28;20522;-75
2021/03/27 10:45:26;;;;;;;0.40;0.30;;;;;;;6.91;96.19;101133.88;5096345;28;20432;-75
2021/03/27 10:48:13;;;;;;;0.40;0.30;;;;;;;6.80;97.90;101119.53;5096207;28;20457;-73
2021/03/27 10:50:49;;;;;;;0.40;0.20;;;;;;;6.86;98.40;101133.81;5095775;28;20420;-73
2021/03/27 10:53:26;;;;;;;0.53;0.53;;;;;;;6.87;98.47;101132.78;5096106;28;20429;-71
2021/03/27 10:56:10;;;;;;;0.43;0.33;;;;;;;7.00;98.81;101142.25;5096448;28;20447;-73
2021/03/27 10:58:51;;;;;;;0.40;0.30;;;;;;;6.97;97.89;101142.78;5095892;28;20518;-72
2021/03/27 11:01:47;;;;;;;0.43;0.27;;;;;;;7.04;97.17;101141.47;5096002;28;20543;-73
2021/03/27 11:04:41;;;;;;;0.40;0.30;;;;;;;7.23;95.19;101138.28;5095860;28;20836;-73
2021/03/27 11:07:43;;;;;;;0.93;0.77;;;;;;;7.51;95.61;101145.91;5095690;28;20429;-69
2021/03/27 11:10:38;;;;;;;0.50;0.40;;;;;;;7.87;94.21;101148.63;5095095;28;20457;-73
2021/03/27 11:13:55;;;;;;;0.40;0.33;;;;;;;8.11;92.01;101158.91;5072638;28;20435;-70
2021/03/27 11:17:02;;;;;;;0.73;0.60;;;;;;;8.40;93.36;101153.78;5095137;28;20779;-67
2021/03/27 11:20:02;;;;;;;0.87;0.87;;;;;;;8.69;88.51;101162.13;5083929;28;20453;-71
2021/03/27 11:22:47;;;;;;;0.50;0.30;;;;;;;9.02;85.69;101158.75;5095455;28;20465;-71
2021/03/27 11:25:32;;;;;;;0.47;0.40;;;;;;;9.89;85.69;101171.78;5111681;22;20426;-66
2021/03/27 11:28:12;;;;;;;1.77;1.00;;;;;;;10.74;83.27;101170.53;5054577;28;20450;-68
2021/03/27 11:30:46;;;;;;;0.70;0.70;;;;;;;11.51;79.29;101175.81;5055169;28;20430;-66
2021/03/27 11:33:24;;;;;;;0.70;0.40;;;;;;;11.69;74.60;101177.75;5054904;28;20927;-67
2021/03/27 11:36:01;;;;;;;0.80;0.70;;;;;;;11.29;75.80;101179.09;5054970;28;20461;-66
2021/03/27 11:38:33;;;;;;;0.70;0.67;;;;;;;10.49;74.54;101185.13;5055069;28;20434;-67
2021/03/27 11:41:06;;;;;;;37.40;1.67;;;;;;;10.04;78.22;101174.38;5054965;28;20838;-68
2021/03/27 11:43:45;;;;;;;0.50;0.50;;;;;;;9.75;77.49;101177.03;5054939;28;20422;-66
2021/03/27 11:46:18;;;;;;;1.63;1.53;;;;;;;9.64;80.00;101180.06;5054452;28;20494;-67
2021/03/27 11:48:48;;;;;;;0.40;0.30;;;;;;;10.78;76.68;101175.06;5053786;28;20438;-67
2021/03/27 11:51:20;;;;;;;2.00;0.87;;;;;;;12.23;72.29;101173.66;5053917;28;20569;-67
2021/03/27 11:53:56;;;;;;;0.40;0.30;;;;;;;12.47;67.60;101180.84;5053726;28;20468;-67
2021/03/27 11:56:36;;;;;;;0.50;0.40;;;;;;;12.05;67.42;101175.31;5047173;28;20470;-67
2021/03/27 12:02:14;;;;;;;1.07;0.80;;;;;;;12.55;69.71;101164.66;5054031;28;20527;-67
2021/03/27 12:04:54;;;;;;;1.10;0.93;;;;;;;13.80;62.31;101174.34;5054076;28;20790;-68
2021/03/27 12:07:25;;;;;;;0.80;0.80;;;;;;;15.19;60.76;101177.03;5051187;28;20535;-67
2021/03/27 12:09:56;;;;;;;0.43;0.30;;;;;;;15.36;52.44;101169.69;5053890;28;20457;-69
2021/03/27 12:12:33;;;;;;;2.27;1.70;;;;;;;15.54;49.34;101167.78;5054063;28;20427;-67
2021/03/27 12:15:12;;;;;;;0.70;0.70;;;;;;;15.38;50.59;101164.72;5052737;28;20441;-68
2021/03/27 12:17:51;;;;;;;1.83;0.93;;;;;;;14.58;50.88;101169.44;5053370;28;20444;-66
2021/03/27 12:20:26;;;;;;;1.17;0.50;;;;;;;13.32;52.36;101165.88;5044774;28;20462;-67
2021/03/27 12:22:58;;;;;;;1.10;0.60;;;;;;;12.73;52.34;101157.53;5053259;28;20498;-67
2021/03/27 12:25:38;;;;;;;0.87;0.53;;;;;;;12.84;53.76;101161.69;5053327;28;20470;-67
2021/03/27 12:28:14;;;;;;;0.50;0.30;;;;;;;12.81;55.28;101156.84;5053807;28;20458;-67
2021/03/27 12:30:48;;;;;;;0.70;0.50;;;;;;;12.60;55.42;101163.75;5053315;28;20445;-66
2021/03/27 12:33:23;;;;;;;0.80;0.50;;;;;;;12.12;56.16;101161.34;5053629;28;20911;-66
2021/03/27 12:35:54;;;;;;;2.73;1.17;;;;;;;11.89;55.40;101167.69;5052564;28;20468;-67
2021/03/27 12:38:29;;;;;;;0.43;0.33;;;;;;;11.67;56.16;101171.78;5053493;28;20461;-66
2021/03/27 12:41:05;;;;;;;0.67;0.40;;;;;;;11.41;56.35;101181.38;5043058;28;20448;-67